メインページ
METAR-TAF:

METAR-TAF

空港 :

マドリード, スペイン

アドルフォ・スアレス・マドリード=バラハス空港

緯度: 40-27N, 経度: 003-33W, 海抜: 609m

現時点の気象観測

当レポートは36分前の23:00(UTC)に作成
変向風 2kt
気温 14°C
湿度 38%
気圧 1016 hPa
視程10km以上
1,500メートル以下は雲なし、積乱雲なし

METAR: LEMD 232300Z VRB02KT CAVOK 14/00 Q1016 NOSIG

時間: 01:36 (23:36 UTC)

予報

当レポートは4時間33分前の19:03(UTC)に作成
予報は23日の 19時(UTC)から 24日の 24時(UTC)まで有効
変向風 3kt
視程10km以上
1,500メートル以下は雲なし、積乱雲なし
確率 40% :
23日の 21時(UTC)から 24日の 03時(UTC)まで一時的に
南/南東の風 8kt、最大18ktの突風を伴う
確率 40% :
24日の 12時(UTC)から 24日の 19時(UTC)まで一時的に
高度4000ftの雲はほとんどない, 塔状積雲.
24日の 11時(UTC)から 24日の 13時(UTC)まで徐々に
南西の風 10kt
確率 40% :
24日の 12時(UTC)から 24日の 18時(UTC)まで一時的に
南西の風 15kt、最大25ktの突風を伴う

TAF: LEMD 231903Z 2319/2424 VRB03KT CAVOK TX24/2415Z TN08/2406Z PROB40 TEMPO 2321/2403 16008G18KT PROB40 TEMPO 2412/2419 FEW040TCU BECMG 2411/2413 22010KT PROB40 TEMPO 2412/2418 22015G25KT

4,000以上の空港の気象観測と天気予報(METAR報とTAF報)

利用可能な観測所は地図上に黄色い丸と赤い丸で示す。

丸の上にカーソルを重ねると観測所名を参照できる。

次にクリックすると気象観測と天気予報を参照できる。

マップの切り替え:黒色「×」印の緑ボタンをクリックして拡大、「-」印の緑ボタンをクリックして縮小、緑色の三角印をクリックして隣りの地図に切り替え


METAR-TAF: